sensor_id;sensor_type;location;lat;lon;timestamp;temperature;humidity
43581;DHT22;29175;51.030;4.606;2022-11-24T00:02:06;9.80;99.90
43581;DHT22;29175;51.030;4.606;2022-11-24T00:04:32;9.80;99.90
43581;DHT22;29175;51.030;4.606;2022-11-24T00:06:58;9.70;99.90
43581;DHT22;29175;51.030;4.606;2022-11-24T00:09:26;9.90;99.90
43581;DHT22;29175;51.030;4.606;2022-11-24T00:11:52;10.20;99.90
43581;DHT22;29175;51.030;4.606;2022-11-24T00:14:18;10.40;99.90
43581;DHT22;29175;51.030;4.606;2022-11-24T00:16:44;10.30;99.90
43581;DHT22;29175;51.030;4.606;2022-11-24T00:19:10;10.30;99.90
43581;DHT22;29175;51.030;4.606;2022-11-24T00:21:36;10.20;99.90
43581;DHT22;29175;51.030;4.606;2022-11-24T00:24:02;10.20;99.90
43581;DHT22;29175;51.030;4.606;2022-11-24T00:26:33;10.30;99.90
43581;DHT22;29175;51.030;4.606;2022-11-24T00:29:01;10.50;99.90
43581;DHT22;29175;51.030;4.606;2022-11-24T00:31:30;10.60;99.90
43581;DHT22;29175;51.030;4.606;2022-11-24T00:33:59;10.40;99.90
43581;DHT22;29175;51.030;4.606;2022-11-24T00:36:27;10.30;99.90
43581;DHT22;29175;51.030;4.606;2022-11-24T00:38:58;10.40;99.90
43581;DHT22;29175;51.030;4.606;2022-11-24T00:41:26;10.50;99.90
43581;DHT22;29175;51.030;4.606;2022-11-24T00:43:52;10.40;99.90
43581;DHT22;29175;51.030;4.606;2022-11-24T00:46:18;10.20;99.90
43581;DHT22;29175;51.030;4.606;2022-11-24T00:48:46;10.30;99.90
43581;DHT22;29175;51.030;4.606;2022-11-24T00:51:14;10.20;99.90
43581;DHT22;29175;51.030;4.606;2022-11-24T00:53:42;10.20;99.90
43581;DHT22;29175;51.030;4.606;2022-11-24T00:56:08;10.20;99.90
43581;DHT22;29175;51.030;4.606;2022-11-24T00:58:35;10.20;99.90
43581;DHT22;29175;51.030;4.606;2022-11-24T01:01:06;10.10;99.90
43581;DHT22;29175;51.030;4.606;2022-11-24T01:03:34;10.30;99.90
43581;DHT22;29175;51.030;4.606;2022-11-24T01:06:06;10.50;99.90
43581;DHT22;29175;51.030;4.606;2022-11-24T01:08:32;10.40;99.90
43581;DHT22;29175;51.030;4.606;2022-11-24T01:11:17;10.40;99.90
43581;DHT22;29175;51.030;4.606;2022-11-24T01:13:48;10.60;99.90
43581;DHT22;29175;51.030;4.606;2022-11-24T01:16:31;10.40;99.90
43581;DHT22;29175;51.030;4.606;2022-11-24T01:18:57;10.60;99.90
43581;DHT22;29175;51.030;4.606;2022-11-24T01:21:24;10.50;99.90
43581;DHT22;29175;51.030;4.606;2022-11-24T01:23:50;10.80;99.90
43581;DHT22;29175;51.030;4.606;2022-11-24T01:26:18;10.80;99.90
43581;DHT22;29175;51.030;4.606;2022-11-24T01:28:46;10.60;99.90
43581;DHT22;29175;51.030;4.606;2022-11-24T01:31:13;10.70;99.90
43581;DHT22;29175;51.030;4.606;2022-11-24T01:33:41;10.60;99.90
43581;DHT22;29175;51.030;4.606;2022-11-24T01:36:07;10.70;99.90
43581;DHT22;29175;51.030;4.606;2022-11-24T01:38:36;10.60;99.90
43581;DHT22;29175;51.030;4.606;2022-11-24T01:41:15;10.60;99.90
43581;DHT22;29175;51.030;4.606;2022-11-24T01:43:50;10.90;99.90
43581;DHT22;29175;51.030;4.606;2022-11-24T01:49:13;10.60;99.90
43581;DHT22;29175;51.030;4.606;2022-11-24T01:51:48;10.50;99.90
43581;DHT22;29175;51.030;4.606;2022-11-24T01:54:23;10.40;99.90
43581;DHT22;29175;51.030;4.606;2022-11-24T01:56:54;10.70;99.90
43581;DHT22;29175;51.030;4.606;2022-11-24T01:59:21;10.70;99.90
43581;DHT22;29175;51.030;4.606;2022-11-24T02:01:49;10.50;99.90
43581;DHT22;29175;51.030;4.606;2022-11-24T02:04:21;10.50;99.90
43581;DHT22;29175;51.030;4.606;2022-11-24T02:06:51;10.50;99.90
43581;DHT22;29175;51.030;4.606;2022-11-24T02:09:27;10.60;99.90
43581;DHT22;29175;51.030;4.606;2022-11-24T02:11:58;10.70;99.90
43581;DHT22;29175;51.030;4.606;2022-11-24T02:14:26;10.70;99.90
43581;DHT22;29175;51.030;4.606;2022-11-24T02:16:54;10.70;99.90
43581;DHT22;29175;51.030;4.606;2022-11-24T02:21:56;10.80;99.90
43581;DHT22;29175;51.030;4.606;2022-11-24T02:24:36;10.80;99.90
43581;DHT22;29175;51.030;4.606;2022-11-24T02:27:05;10.80;99.90
43581;DHT22;29175;51.030;4.606;2022-11-24T02:29:34;10.80;99.90
43581;DHT22;29175;51.030;4.606;2022-11-24T02:32:03;11.10;99.90
43581;DHT22;29175;51.030;4.606;2022-11-24T02:34:29;11.00;99.90
43581;DHT22;29175;51.030;4.606;2022-11-24T02:36:58;10.80;99.90
43581;DHT22;29175;51.030;4.606;2022-11-24T02:39:25;10.90;99.90
43581;DHT22;29175;51.030;4.606;2022-11-24T02:42:10;11.00;99.90
43581;DHT22;29175;51.030;4.606;2022-11-24T02:44:42;11.00;99.90
43581;DHT22;29175;51.030;4.606;2022-11-24T02:47:12;11.00;99.90
43581;DHT22;29175;51.030;4.606;2022-11-24T02:49:38;11.20;99.90
43581;DHT22;29175;51.030;4.606;2022-11-24T02:52:06;11.20;99.90
43581;DHT22;29175;51.030;4.606;2022-11-24T02:54:32;11.20;99.90
43581;DHT22;29175;51.030;4.606;2022-11-24T02:56:59;11.20;99.90
43581;DHT22;29175;51.030;4.606;2022-11-24T02:59:26;11.10;99.90
43581;DHT22;29175;51.030;4.606;2022-11-24T03:01:53;10.90;99.90
43581;DHT22;29175;51.030;4.606;2022-11-24T03:04:19;11.20;99.90
43581;DHT22;29175;51.030;4.606;2022-11-24T03:06:44;11.40;99.90
43581;DHT22;29175;51.030;4.606;2022-11-24T03:09:10;11.40;99.90
43581;DHT22;29175;51.030;4.606;2022-11-24T03:11:39;11.40;99.90
43581;DHT22;29175;51.030;4.606;2022-11-24T03:14:06;11.20;99.90
43581;DHT22;29175;51.030;4.606;2022-11-24T03:16:33;11.20;99.90
43581;DHT22;29175;51.030;4.606;2022-11-24T03:19:00;11.30;99.90
43581;DHT22;29175;51.030;4.606;2022-11-24T03:21:26;11.20;99.90
43581;DHT22;29175;51.030;4.606;2022-11-24T03:23:52;11.30;99.90
43581;DHT22;29175;51.030;4.606;2022-11-24T03:26:20;11.10;99.90
43581;DHT22;29175;51.030;4.606;2022-11-24T03:28:48;11.00;99.90
43581;DHT22;29175;51.030;4.606;2022-11-24T03:31:14;10.90;99.90
43581;DHT22;29175;51.030;4.606;2022-11-24T03:33:41;10.70;99.90
43581;DHT22;29175;51.030;4.606;2022-11-24T03:36:08;10.80;99.90
43581;DHT22;29175;51.030;4.606;2022-11-24T03:38:34;10.70;99.90
43581;DHT22;29175;51.030;4.606;2022-11-24T03:41:00;10.70;99.90
43581;DHT22;29175;51.030;4.606;2022-11-24T03:43:25;10.80;99.90
43581;DHT22;29175;51.030;4.606;2022-11-24T03:45:51;11.00;99.90
43581;DHT22;29175;51.030;4.606;2022-11-24T03:48:18;11.00;99.90
43581;DHT22;29175;51.030;4.606;2022-11-24T03:50:56;11.00;99.90
43581;DHT22;29175;51.030;4.606;2022-11-24T03:53:25;10.90;99.90
43581;DHT22;29175;51.030;4.606;2022-11-24T03:55:51;10.70;99.90
43581;DHT22;29175;51.030;4.606;2022-11-24T03:58:18;11.00;99.90
43581;DHT22;29175;51.030;4.606;2022-11-24T04:00:47;11.00;99.90
43581;DHT22;29175;51.030;4.606;2022-11-24T04:03:14;11.10;99.90
43581;DHT22;29175;51.030;4.606;2022-11-24T04:05:40;10.90;99.90
43581;DHT22;29175;51.030;4.606;2022-11-24T04:08:09;10.60;99.90
43581;DHT22;29175;51.030;4.606;2022-11-24T04:10:36;10.70;99.90
43581;DHT22;29175;51.030;4.606;2022-11-24T04:13:03;10.60;99.90
43581;DHT22;29175;51.030;4.606;2022-11-24T04:15:31;10.40;99.90
43581;DHT22;29175;51.030;4.606;2022-11-24T04:17:57;10.20;99.90
43581;DHT22;29175;51.030;4.606;2022-11-24T04:20:23;10.20;99.90
43581;DHT22;29175;51.030;4.606;2022-11-24T04:22:49;10.30;99.90
43581;DHT22;29175;51.030;4.606;2022-11-24T04:25:17;10.40;99.90
43581;DHT22;29175;51.030;4.606;2022-11-24T04:27:43;10.20;99.90
43581;DHT22;29175;51.030;4.606;2022-11-24T04:30:09;10.10;99.90
43581;DHT22;29175;51.030;4.606;2022-11-24T04:32:37;10.20;99.90
43581;DHT22;29175;51.030;4.606;2022-11-24T04:35:03;10.20;99.90
43581;DHT22;29175;51.030;4.606;2022-11-24T04:37:29;10.40;99.90
43581;DHT22;29175;51.030;4.606;2022-11-24T04:39:58;10.20;99.90
43581;DHT22;29175;51.030;4.606;2022-11-24T04:42:24;10.40;99.90
43581;DHT22;29175;51.030;4.606;2022-11-24T04:44:51;10.20;99.90
43581;DHT22;29175;51.030;4.606;2022-11-24T04:47:20;10.50;99.90
43581;DHT22;29175;51.030;4.606;2022-11-24T04:49:46;10.20;99.90
43581;DHT22;29175;51.030;4.606;2022-11-24T04:52:14;10.10;99.90
43581;DHT22;29175;51.030;4.606;2022-11-24T04:54:40;10.30;99.90
43581;DHT22;29175;51.030;4.606;2022-11-24T04:57:05;10.50;99.90
43581;DHT22;29175;51.030;4.606;2022-11-24T04:59:31;10.40;99.90
43581;DHT22;29175;51.030;4.606;2022-11-24T05:01:57;10.30;99.90
43581;DHT22;29175;51.030;4.606;2022-11-24T05:04:22;9.80;99.90
43581;DHT22;29175;51.030;4.606;2022-11-24T05:06:48;9.90;99.90
43581;DHT22;29175;51.030;4.606;2022-11-24T05:09:15;10.00;99.90
43581;DHT22;29175;51.030;4.606;2022-11-24T05:11:41;10.20;99.90
43581;DHT22;29175;51.030;4.606;2022-11-24T05:14:07;9.80;99.90
43581;DHT22;29175;51.030;4.606;2022-11-24T05:16:33;10.00;99.90
43581;DHT22;29175;51.030;4.606;2022-11-24T05:19:00;10.00;99.90
43581;DHT22;29175;51.030;4.606;2022-11-24T05:21:26;10.20;99.90
43581;DHT22;29175;51.030;4.606;2022-11-24T05:23:52;10.20;99.90
43581;DHT22;29175;51.030;4.606;2022-11-24T05:26:18;10.10;99.90
43581;DHT22;29175;51.030;4.606;2022-11-24T05:28:45;10.10;99.90
43581;DHT22;29175;51.030;4.606;2022-11-24T05:31:11;10.20;99.90
43581;DHT22;29175;51.030;4.606;2022-11-24T05:33:37;10.10;99.90
43581;DHT22;29175;51.030;4.606;2022-11-24T05:36:04;10.10;99.90
43581;DHT22;29175;51.030;4.606;2022-11-24T05:38:31;9.90;99.90
43581;DHT22;29175;51.030;4.606;2022-11-24T05:41:05;9.70;99.90
43581;DHT22;29175;51.030;4.606;2022-11-24T05:43:31;9.90;99.90
43581;DHT22;29175;51.030;4.606;2022-11-24T05:46:01;9.90;99.90
43581;DHT22;29175;51.030;4.606;2022-11-24T05:48:28;9.80;99.90
43581;DHT22;29175;51.030;4.606;2022-11-24T05:50:57;9.90;99.90
43581;DHT22;29175;51.030;4.606;2022-11-24T05:53:23;9.80;99.90
43581;DHT22;29175;51.030;4.606;2022-11-24T05:55:50;10.10;99.90
43581;DHT22;29175;51.030;4.606;2022-11-24T05:58:16;10.30;99.90
43581;DHT22;29175;51.030;4.606;2022-11-24T06:00:42;10.20;99.90
43581;DHT22;29175;51.030;4.606;2022-11-24T06:03:09;9.90;99.90
43581;DHT22;29175;51.030;4.606;2022-11-24T06:05:34;9.90;99.90
43581;DHT22;29175;51.030;4.606;2022-11-24T06:08:00;9.80;99.90
43581;DHT22;29175;51.030;4.606;2022-11-24T06:10:26;9.70;99.90
43581;DHT22;29175;51.030;4.606;2022-11-24T06:12:52;9.40;99.90
43581;DHT22;29175;51.030;4.606;2022-11-24T06:15:17;9.40;99.90
43581;DHT22;29175;51.030;4.606;2022-11-24T06:17:43;9.40;99.90
43581;DHT22;29175;51.030;4.606;2022-11-24T06:20:10;9.60;99.90
43581;DHT22;29175;51.030;4.606;2022-11-24T06:22:36;9.60;99.90
43581;DHT22;29175;51.030;4.606;2022-11-24T06:25:02;9.70;99.90
43581;DHT22;29175;51.030;4.606;2022-11-24T06:27:28;9.60;99.90
43581;DHT22;29175;51.030;4.606;2022-11-24T06:29:54;9.40;99.90
43581;DHT22;29175;51.030;4.606;2022-11-24T06:32:20;9.50;99.90
43581;DHT22;29175;51.030;4.606;2022-11-24T06:34:45;9.40;99.90
43581;DHT22;29175;51.030;4.606;2022-11-24T06:37:11;9.90;99.90
43581;DHT22;29175;51.030;4.606;2022-11-24T06:39:36;9.80;99.90
43581;DHT22;29175;51.030;4.606;2022-11-24T06:42:02;9.60;99.90
43581;DHT22;29175;51.030;4.606;2022-11-24T06:44:28;9.40;99.90
43581;DHT22;29175;51.030;4.606;2022-11-24T06:46:54;9.40;99.90
43581;DHT22;29175;51.030;4.606;2022-11-24T06:49:19;9.70;99.90
43581;DHT22;29175;51.030;4.606;2022-11-24T06:51:45;9.50;99.90
43581;DHT22;29175;51.030;4.606;2022-11-24T06:54:15;9.90;99.90
43581;DHT22;29175;51.030;4.606;2022-11-24T06:56:41;9.70;99.90
43581;DHT22;29175;51.030;4.606;2022-11-24T06:59:12;9.60;99.90
43581;DHT22;29175;51.030;4.606;2022-11-24T07:01:38;9.60;99.90
43581;DHT22;29175;51.030;4.606;2022-11-24T07:04:04;9.50;99.90
43581;DHT22;29175;51.030;4.606;2022-11-24T07:06:30;9.50;99.90
43581;DHT22;29175;51.030;4.606;2022-11-24T07:08:55;9.60;99.90
43581;DHT22;29175;51.030;4.606;2022-11-24T07:11:23;9.50;99.90
43581;DHT22;29175;51.030;4.606;2022-11-24T07:13:49;9.60;99.90
43581;DHT22;29175;51.030;4.606;2022-11-24T07:16:23;9.60;99.90
43581;DHT22;29175;51.030;4.606;2022-11-24T07:18:51;9.70;99.90
43581;DHT22;29175;51.030;4.606;2022-11-24T07:21:18;9.60;99.90
43581;DHT22;29175;51.030;4.606;2022-11-24T07:23:47;9.70;99.90
43581;DHT22;29175;51.030;4.606;2022-11-24T07:26:14;9.80;99.90
43581;DHT22;29175;51.030;4.606;2022-11-24T07:28:39;9.60;99.90
43581;DHT22;29175;51.030;4.606;2022-11-24T07:31:10;9.40;99.90
43581;DHT22;29175;51.030;4.606;2022-11-24T07:33:37;9.30;99.90
43581;DHT22;29175;51.030;4.606;2022-11-24T07:36:04;9.60;99.90
43581;DHT22;29175;51.030;4.606;2022-11-24T07:38:31;9.40;99.90
43581;DHT22;29175;51.030;4.606;2022-11-24T07:41:05;9.60;99.90
43581;DHT22;29175;51.030;4.606;2022-11-24T07:43:32;9.90;99.90
43581;DHT22;29175;51.030;4.606;2022-11-24T07:45:58;9.80;99.90
43581;DHT22;29175;51.030;4.606;2022-11-24T07:48:24;9.60;99.90
43581;DHT22;29175;51.030;4.606;2022-11-24T07:50:49;9.60;99.90
43581;DHT22;29175;51.030;4.606;2022-11-24T07:53:15;9.40;99.90
43581;DHT22;29175;51.030;4.606;2022-11-24T07:55:41;9.20;99.90
43581;DHT22;29175;51.030;4.606;2022-11-24T07:58:07;9.20;99.90
43581;DHT22;29175;51.030;4.606;2022-11-24T08:00:32;9.30;99.90
43581;DHT22;29175;51.030;4.606;2022-11-24T08:02:58;9.40;99.90
43581;DHT22;29175;51.030;4.606;2022-11-24T08:05:23;9.50;99.90
43581;DHT22;29175;51.030;4.606;2022-11-24T08:07:49;9.80;99.90
43581;DHT22;29175;51.030;4.606;2022-11-24T08:10:15;9.70;99.90
43581;DHT22;29175;51.030;4.606;2022-11-24T08:12:44;9.70;99.90
43581;DHT22;29175;51.030;4.606;2022-11-24T08:15:10;9.90;99.90
43581;DHT22;29175;51.030;4.606;2022-11-24T08:17:36;9.90;99.90
43581;DHT22;29175;51.030;4.606;2022-11-24T08:20:04;9.60;99.90
43581;DHT22;29175;51.030;4.606;2022-11-24T08:22:34;9.70;99.90
43581;DHT22;29175;51.030;4.606;2022-11-24T08:24:59;10.00;99.90
43581;DHT22;29175;51.030;4.606;2022-11-24T08:27:26;10.00;99.90
43581;DHT22;29175;51.030;4.606;2022-11-24T08:29:52;9.90;99.90
43581;DHT22;29175;51.030;4.606;2022-11-24T08:32:18;9.90;99.90
43581;DHT22;29175;51.030;4.606;2022-11-24T08:34:45;9.80;99.90
43581;DHT22;29175;51.030;4.606;2022-11-24T08:37:11;10.00;99.90
43581;DHT22;29175;51.030;4.606;2022-11-24T08:39:39;10.00;99.90
43581;DHT22;29175;51.030;4.606;2022-11-24T08:42:06;10.00;99.90
43581;DHT22;29175;51.030;4.606;2022-11-24T08:44:32;9.80;99.90
43581;DHT22;29175;51.030;4.606;2022-11-24T08:46:59;9.80;99.90
43581;DHT22;29175;51.030;4.606;2022-11-24T08:49:25;9.80;99.90
43581;DHT22;29175;51.030;4.606;2022-11-24T08:51:52;9.80;99.90
43581;DHT22;29175;51.030;4.606;2022-11-24T08:54:18;9.70;99.90
43581;DHT22;29175;51.030;4.606;2022-11-24T08:56:48;9.80;99.90
43581;DHT22;29175;51.030;4.606;2022-11-24T08:59:14;9.70;99.90
43581;DHT22;29175;51.030;4.606;2022-11-24T09:01:40;10.00;99.90
43581;DHT22;29175;51.030;4.606;2022-11-24T09:04:06;10.00;99.90
43581;DHT22;29175;51.030;4.606;2022-11-24T09:06:32;10.20;99.90
43581;DHT22;29175;51.030;4.606;2022-11-24T09:08:58;10.20;99.90
43581;DHT22;29175;51.030;4.606;2022-11-24T09:11:25;10.30;99.90
43581;DHT22;29175;51.030;4.606;2022-11-24T09:13:52;10.40;99.90
43581;DHT22;29175;51.030;4.606;2022-11-24T09:16:24;10.40;99.90
43581;DHT22;29175;51.030;4.606;2022-11-24T09:18:56;10.50;99.90
43581;DHT22;29175;51.030;4.606;2022-11-24T09:21:22;10.60;99.90
43581;DHT22;29175;51.030;4.606;2022-11-24T09:23:49;10.70;99.90
43581;DHT22;29175;51.030;4.606;2022-11-24T09:28:48;10.70;99.90
43581;DHT22;29175;51.030;4.606;2022-11-24T09:31:16;10.70;99.90
43581;DHT22;29175;51.030;4.606;2022-11-24T09:33:44;10.70;99.90
43581;DHT22;29175;51.030;4.606;2022-11-24T09:36:10;10.60;99.90
43581;DHT22;29175;51.030;4.606;2022-11-24T09:38:37;10.60;99.90
43581;DHT22;29175;51.030;4.606;2022-11-24T09:47:21;10.80;99.90
43581;DHT22;29175;51.030;4.606;2022-11-24T09:50:40;10.80;99.90
43581;DHT22;29175;51.030;4.606;2022-11-24T09:55:49;11.10;99.90
43581;DHT22;29175;51.030;4.606;2022-11-24T10:01:03;11.30;99.90
43581;DHT22;29175;51.030;4.606;2022-11-24T10:03:41;11.20;99.90
43581;DHT22;29175;51.030;4.606;2022-11-24T10:14:46;11.60;99.90
43581;DHT22;29175;51.030;4.606;2022-11-24T10:21:09;11.90;99.90
43581;DHT22;29175;51.030;4.606;2022-11-24T10:23:33;12.00;99.90
43581;DHT22;29175;51.030;4.606;2022-11-24T10:26:13;12.00;99.90
43581;DHT22;29175;51.030;4.606;2022-11-24T10:28:53;12.00;99.90
43581;DHT22;29175;51.030;4.606;2022-11-24T10:31:35;12.00;99.90
43581;DHT22;29175;51.030;4.606;2022-11-24T10:39:33;12.50;99.90
43581;DHT22;29175;51.030;4.606;2022-11-24T10:42:27;12.90;99.90
43581;DHT22;29175;51.030;4.606;2022-11-24T10:47:35;12.90;99.90
43581;DHT22;29175;51.030;4.606;2022-11-24T10:52:54;12.90;99.90
43581;DHT22;29175;51.030;4.606;2022-11-24T10:55:22;13.80;99.90
43581;DHT22;29175;51.030;4.606;2022-11-24T10:57:48;14.30;99.90
43581;DHT22;29175;51.030;4.606;2022-11-24T11:02:47;14.80;99.90
43581;DHT22;29175;51.030;4.606;2022-11-24T11:10:39;14.00;99.90
43581;DHT22;29175;51.030;4.606;2022-11-24T11:13:26;14.00;99.90
43581;DHT22;29175;51.030;4.606;2022-11-24T11:15:53;14.10;99.90
43581;DHT22;29175;51.030;4.606;2022-11-24T11:18:19;14.00;99.90
43581;DHT22;29175;51.030;4.606;2022-11-24T11:20:56;13.40;99.90
43581;DHT22;29175;51.030;4.606;2022-11-24T11:23:29;13.50;99.90
43581;DHT22;29175;51.030;4.606;2022-11-24T11:31:22;13.50;99.90
43581;DHT22;29175;51.030;4.606;2022-11-24T11:34:00;13.30;99.90
43581;DHT22;29175;51.030;4.606;2022-11-24T11:36:26;13.40;99.90
43581;DHT22;29175;51.030;4.606;2022-11-24T11:38:52;13.20;99.90
43581;DHT22;29175;51.030;4.606;2022-11-24T11:41:25;13.70;99.90
43581;DHT22;29175;51.030;4.606;2022-11-24T11:44:07;13.10;99.90
43581;DHT22;29175;51.030;4.606;2022-11-24T11:46:35;13.00;99.90
43581;DHT22;29175;51.030;4.606;2022-11-24T11:49:01;13.00;99.90
43581;DHT22;29175;51.030;4.606;2022-11-24T11:51:50;13.20;99.90
43581;DHT22;29175;51.030;4.606;2022-11-24T11:57:14;13.60;99.90
43581;DHT22;29175;51.030;4.606;2022-11-24T12:00:17;13.70;99.90
43581;DHT22;29175;51.030;4.606;2022-11-24T12:11:20;13.40;99.90
43581;DHT22;29175;51.030;4.606;2022-11-24T12:16:42;13.60;99.90
43581;DHT22;29175;51.030;4.606;2022-11-24T12:28:54;13.60;99.90
43581;DHT22;29175;51.030;4.606;2022-11-24T12:39:10;13.30;99.90
43581;DHT22;29175;51.030;4.606;2022-11-24T12:42:13;13.10;99.90
43581;DHT22;29175;51.030;4.606;2022-11-24T12:47:53;13.00;99.90
43581;DHT22;29175;51.030;4.606;2022-11-24T12:50:22;13.00;99.90
43581;DHT22;29175;51.030;4.606;2022-11-24T12:53:16;13.00;99.90
43581;DHT22;29175;51.030;4.606;2022-11-24T12:55:42;13.00;99.90
43581;DHT22;29175;51.030;4.606;2022-11-24T13:01:23;13.40;99.90
43581;DHT22;29175;51.030;4.606;2022-11-24T13:06:53;13.70;99.90
43581;DHT22;29175;51.030;4.606;2022-11-24T13:09:21;13.70;99.90
43581;DHT22;29175;51.030;4.606;2022-11-24T13:11:51;13.80;99.90
43581;DHT22;29175;51.030;4.606;2022-11-24T13:14:30;14.10;99.90
43581;DHT22;29175;51.030;4.606;2022-11-24T13:16:59;13.60;99.90
43581;DHT22;29175;51.030;4.606;2022-11-24T13:19:33;13.50;99.90
43581;DHT22;29175;51.030;4.606;2022-11-24T13:22:09;13.60;99.90
43581;DHT22;29175;51.030;4.606;2022-11-24T13:24:39;13.60;99.90
43581;DHT22;29175;51.030;4.606;2022-11-24T13:29:49;13.50;99.90
43581;DHT22;29175;51.030;4.606;2022-11-24T13:39:50;13.60;99.90
43581;DHT22;29175;51.030;4.606;2022-11-24T13:42:17;13.70;99.90
43581;DHT22;29175;51.030;4.606;2022-11-24T13:44:49;13.40;99.90
43581;DHT22;29175;51.030;4.606;2022-11-24T13:47:42;13.10;99.90
43581;DHT22;29175;51.030;4.606;2022-11-24T13:50:21;13.20;99.90
43581;DHT22;29175;51.030;4.606;2022-11-24T13:53:11;13.10;99.90
43581;DHT22;29175;51.030;4.606;2022-11-24T13:55:39;13.20;99.90
43581;DHT22;29175;51.030;4.606;2022-11-24T14:00:55;13.10;99.90
43581;DHT22;29175;51.030;4.606;2022-11-24T14:03:28;13.10;99.90
43581;DHT22;29175;51.030;4.606;2022-11-24T14:05:59;13.10;99.90
43581;DHT22;29175;51.030;4.606;2022-11-24T14:08:30;13.00;99.90
43581;DHT22;29175;51.030;4.606;2022-11-24T14:10:58;13.10;99.90
43581;DHT22;29175;51.030;4.606;2022-11-24T14:13:26;13.00;99.90
43581;DHT22;29175;51.030;4.606;2022-11-24T14:15:59;13.00;99.90
43581;DHT22;29175;51.030;4.606;2022-11-24T14:18:25;12.80;99.90
43581;DHT22;29175;51.030;4.606;2022-11-24T14:20:57;12.80;99.90
43581;DHT22;29175;51.030;4.606;2022-11-24T14:23:24;12.80;99.90
43581;DHT22;29175;51.030;4.606;2022-11-24T14:25:50;12.90;99.90
43581;DHT22;29175;51.030;4.606;2022-11-24T14:28:25;12.80;99.90
43581;DHT22;29175;51.030;4.606;2022-11-24T14:31:08;12.60;99.90
43581;DHT22;29175;51.030;4.606;2022-11-24T14:33:35;12.70;99.90
43581;DHT22;29175;51.030;4.606;2022-11-24T14:36:00;12.70;99.90
43581;DHT22;29175;51.030;4.606;2022-11-24T14:38:26;12.80;99.90
43581;DHT22;29175;51.030;4.606;2022-11-24T14:40:53;12.50;99.90
43581;DHT22;29175;51.030;4.606;2022-11-24T14:43:25;12.50;99.90
43581;DHT22;29175;51.030;4.606;2022-11-24T14:45:58;12.50;99.90
43581;DHT22;29175;51.030;4.606;2022-11-24T14:48:27;12.40;99.90
43581;DHT22;29175;51.030;4.606;2022-11-24T14:51:05;12.30;99.90
43581;DHT22;29175;51.030;4.606;2022-11-24T14:53:32;12.20;99.90
43581;DHT22;29175;51.030;4.606;2022-11-24T14:56:22;12.10;99.90
43581;DHT22;29175;51.030;4.606;2022-11-24T14:58:48;12.10;99.90
43581;DHT22;29175;51.030;4.606;2022-11-24T15:06:37;11.90;99.90
43581;DHT22;29175;51.030;4.606;2022-11-24T15:09:03;11.90;99.90
43581;DHT22;29175;51.030;4.606;2022-11-24T15:11:30;12.00;99.90
43581;DHT22;29175;51.030;4.606;2022-11-24T15:13:56;11.90;99.90
43581;DHT22;29175;51.030;4.606;2022-11-24T15:16:25;11.80;99.90
43581;DHT22;29175;51.030;4.606;2022-11-24T15:18:59;11.60;99.90
43581;DHT22;29175;51.030;4.606;2022-11-24T15:21:32;11.70;99.90
43581;DHT22;29175;51.030;4.606;2022-11-24T15:24:19;11.60;99.90
43581;DHT22;29175;51.030;4.606;2022-11-24T15:26:45;11.80;99.90
43581;DHT22;29175;51.030;4.606;2022-11-24T15:29:11;11.70;99.90
43581;DHT22;29175;51.030;4.606;2022-11-24T15:31:38;11.60;99.90
43581;DHT22;29175;51.030;4.606;2022-11-24T15:34:05;11.60;99.90
43581;DHT22;29175;51.030;4.606;2022-11-24T15:36:31;11.50;99.90
43581;DHT22;29175;51.030;4.606;2022-11-24T15:38:58;11.50;99.90
43581;DHT22;29175;51.030;4.606;2022-11-24T15:41:29;11.40;99.90
43581;DHT22;29175;51.030;4.606;2022-11-24T15:43:55;11.40;99.90
43581;DHT22;29175;51.030;4.606;2022-11-24T15:46:28;11.40;99.90
43581;DHT22;29175;51.030;4.606;2022-11-24T15:48:55;11.40;99.90
43581;DHT22;29175;51.030;4.606;2022-11-24T15:51:24;11.40;99.90
43581;DHT22;29175;51.030;4.606;2022-11-24T15:53:52;11.40;99.90
43581;DHT22;29175;51.030;4.606;2022-11-24T15:58:54;11.30;99.90
43581;DHT22;29175;51.030;4.606;2022-11-24T16:01:21;11.20;99.90
43581;DHT22;29175;51.030;4.606;2022-11-24T16:03:47;11.10;99.90
43581;DHT22;29175;51.030;4.606;2022-11-24T16:06:17;11.10;99.90
43581;DHT22;29175;51.030;4.606;2022-11-24T16:08:43;11.10;99.90
43581;DHT22;29175;51.030;4.606;2022-11-24T16:11:09;11.00;99.90
43581;DHT22;29175;51.030;4.606;2022-11-24T16:13:35;11.10;99.90
43581;DHT22;29175;51.030;4.606;2022-11-24T16:16:01;11.10;99.90
43581;DHT22;29175;51.030;4.606;2022-11-24T16:18:26;11.20;99.90
43581;DHT22;29175;51.030;4.606;2022-11-24T16:20:52;11.20;99.90
43581;DHT22;29175;51.030;4.606;2022-11-24T16:23:17;11.20;99.90
43581;DHT22;29175;51.030;4.606;2022-11-24T16:25:43;11.20;99.90
43581;DHT22;29175;51.030;4.606;2022-11-24T16:28:09;11.10;99.90
43581;DHT22;29175;51.030;4.606;2022-11-24T16:30:34;11.10;99.90
43581;DHT22;29175;51.030;4.606;2022-11-24T16:33:04;11.00;99.90
43581;DHT22;29175;51.030;4.606;2022-11-24T16:35:31;11.00;99.90
43581;DHT22;29175;51.030;4.606;2022-11-24T16:37:57;10.90;99.90
43581;DHT22;29175;51.030;4.606;2022-11-24T16:40:23;11.10;99.90
43581;DHT22;29175;51.030;4.606;2022-11-24T16:42:48;11.00;99.90
43581;DHT22;29175;51.030;4.606;2022-11-24T16:45:14;11.20;99.90
43581;DHT22;29175;51.030;4.606;2022-11-24T16:47:41;11.10;99.90
43581;DHT22;29175;51.030;4.606;2022-11-24T16:50:10;11.00;99.90
43581;DHT22;29175;51.030;4.606;2022-11-24T16:52:37;10.90;99.90
43581;DHT22;29175;51.030;4.606;2022-11-24T16:55:04;10.90;99.90
43581;DHT22;29175;51.030;4.606;2022-11-24T16:57:30;11.00;99.90
43581;DHT22;29175;51.030;4.606;2022-11-24T16:59:56;10.90;99.90
43581;DHT22;29175;51.030;4.606;2022-11-24T17:02:22;10.80;99.90
43581;DHT22;29175;51.030;4.606;2022-11-24T17:04:47;10.80;99.90
43581;DHT22;29175;51.030;4.606;2022-11-24T17:07:17;10.60;99.90
43581;DHT22;29175;51.030;4.606;2022-11-24T17:09:42;10.60;99.90
43581;DHT22;29175;51.030;4.606;2022-11-24T17:12:08;10.70;99.90
43581;DHT22;29175;51.030;4.606;2022-11-24T17:14:34;10.70;99.90
43581;DHT22;29175;51.030;4.606;2022-11-24T17:17:01;10.80;99.90
43581;DHT22;29175;51.030;4.606;2022-11-24T17:19:27;10.80;99.90
43581;DHT22;29175;51.030;4.606;2022-11-24T17:21:56;10.70;99.90
43581;DHT22;29175;51.030;4.606;2022-11-24T17:24:22;10.80;99.90
43581;DHT22;29175;51.030;4.606;2022-11-24T17:26:51;10.80;99.90
43581;DHT22;29175;51.030;4.606;2022-11-24T17:29:17;10.80;99.90
43581;DHT22;29175;51.030;4.606;2022-11-24T17:31:43;10.70;99.90
43581;DHT22;29175;51.030;4.606;2022-11-24T17:34:10;10.60;99.90
43581;DHT22;29175;51.030;4.606;2022-11-24T17:36:36;10.60;99.90
43581;DHT22;29175;51.030;4.606;2022-11-24T17:39:03;10.50;99.90
43581;DHT22;29175;51.030;4.606;2022-11-24T17:41:30;10.50;99.90
43581;DHT22;29175;51.030;4.606;2022-11-24T17:43:56;10.60;99.90